sensor_id;sensor_type;location;lat;lon;timestamp;temperature;humidity
6930;DHT22;3504;52.616;13.238;2023-07-31T00:02:52;15.70;83.04
6930;DHT22;3504;52.616;13.238;2023-07-31T00:07:52;15.68;82.87
6930;DHT22;3504;52.616;13.238;2023-07-31T00:12:55;15.67;82.69
6930;DHT22;3504;52.616;13.238;2023-07-31T00:17:55;15.67;82.49
6930;DHT22;3504;52.616;13.238;2023-07-31T00:22:55;15.67;82.64
6930;DHT22;3504;52.616;13.238;2023-07-31T00:27:56;15.66;82.62
6930;DHT22;3504;52.616;13.238;2023-07-31T00:32:56;15.66;82.74
6930;DHT22;3504;52.616;13.238;2023-07-31T00:37:58;15.64;83.06
6930;DHT22;3504;52.616;13.238;2023-07-31T00:42:59;15.63;83.06
6930;DHT22;3504;52.616;13.238;2023-07-31T00:48:00;15.64;83.07
6930;DHT22;3504;52.616;13.238;2023-07-31T00:53:00;15.67;83.07
6930;DHT22;3504;52.616;13.238;2023-07-31T00:58:01;15.71;83.13
6930;DHT22;3504;52.616;13.238;2023-07-31T01:03:01;15.68;83.02
6930;DHT22;3504;52.616;13.238;2023-07-31T01:08:15;15.71;83.20
6930;DHT22;3504;52.616;13.238;2023-07-31T01:13:17;15.75;83.22
6930;DHT22;3504;52.616;13.238;2023-07-31T01:18:18;15.75;83.33
6930;DHT22;3504;52.616;13.238;2023-07-31T01:24:08;15.77;83.38
6930;DHT22;3504;52.616;13.238;2023-07-31T01:29:25;15.81;83.78
6930;DHT22;3504;52.616;13.238;2023-07-31T01:34:31;15.82;83.93
6930;DHT22;3504;52.616;13.238;2023-07-31T01:39:32;15.78;84.18
6930;DHT22;3504;52.616;13.238;2023-07-31T01:44:33;15.78;84.40
6930;DHT22;3504;52.616;13.238;2023-07-31T01:49:33;15.77;84.48
6930;DHT22;3504;52.616;13.238;2023-07-31T01:54:35;15.81;84.51
6930;DHT22;3504;52.616;13.238;2023-07-31T01:59:37;15.81;84.50
6930;DHT22;3504;52.616;13.238;2023-07-31T02:04:37;15.85;84.51
6930;DHT22;3504;52.616;13.238;2023-07-31T02:09:39;15.85;84.70
6930;DHT22;3504;52.616;13.238;2023-07-31T02:14:40;15.87;84.93
6930;DHT22;3504;52.616;13.238;2023-07-31T02:19:41;15.82;85.30
6930;DHT22;3504;52.616;13.238;2023-07-31T02:24:41;15.78;85.41
6930;DHT22;3504;52.616;13.238;2023-07-31T02:29:42;15.78;85.85
6930;DHT22;3504;52.616;13.238;2023-07-31T02:34:43;15.75;85.89
6930;DHT22;3504;52.616;13.238;2023-07-31T02:39:43;15.78;85.91
6930;DHT22;3504;52.616;13.238;2023-07-31T02:44:44;15.85;85.47
6930;DHT22;3504;52.616;13.238;2023-07-31T02:49:44;15.88;85.48
6930;DHT22;3504;52.616;13.238;2023-07-31T02:54:45;15.87;85.68
6930;DHT22;3504;52.616;13.238;2023-07-31T02:59:45;15.90;85.41
6930;DHT22;3504;52.616;13.238;2023-07-31T03:04:46;15.85;85.91
6930;DHT22;3504;52.616;13.238;2023-07-31T03:09:46;15.87;85.85
6930;DHT22;3504;52.616;13.238;2023-07-31T03:14:46;15.92;85.61
6930;DHT22;3504;52.616;13.238;2023-07-31T03:19:47;15.98;85.56
6930;DHT22;3504;52.616;13.238;2023-07-31T03:24:48;16.04;85.43
6930;DHT22;3504;52.616;13.238;2023-07-31T03:29:48;16.02;85.51
6930;DHT22;3504;52.616;13.238;2023-07-31T03:34:51;15.97;85.47
6930;DHT22;3504;52.616;13.238;2023-07-31T03:39:52;15.91;85.56
6930;DHT22;3504;52.616;13.238;2023-07-31T03:44:52;15.91;85.70
6930;DHT22;3504;52.616;13.238;2023-07-31T03:49:52;15.91;85.50
6930;DHT22;3504;52.616;13.238;2023-07-31T03:54:53;15.91;85.46
6930;DHT22;3504;52.616;13.238;2023-07-31T03:59:53;15.90;85.48
6930;DHT22;3504;52.616;13.238;2023-07-31T04:04:54;15.87;85.60
6930;DHT22;3504;52.616;13.238;2023-07-31T04:09:55;15.90;85.59
6930;DHT22;3504;52.616;13.238;2023-07-31T04:14:56;15.92;85.58
6930;DHT22;3504;52.616;13.238;2023-07-31T04:19:56;15.95;85.57
6930;DHT22;3504;52.616;13.238;2023-07-31T04:24:56;15.94;85.44
6930;DHT22;3504;52.616;13.238;2023-07-31T04:29:57;16.00;85.40
6930;DHT22;3504;52.616;13.238;2023-07-31T04:34:57;16.02;85.57
6930;DHT22;3504;52.616;13.238;2023-07-31T04:39:58;16.02;85.60
6930;DHT22;3504;52.616;13.238;2023-07-31T04:44:58;16.05;85.34
6930;DHT22;3504;52.616;13.238;2023-07-31T04:49:59;16.07;85.54
6930;DHT22;3504;52.616;13.238;2023-07-31T04:54:59;16.07;85.43
6930;DHT22;3504;52.616;13.238;2023-07-31T05:00:00;16.10;85.51
6930;DHT22;3504;52.616;13.238;2023-07-31T05:05:00;16.11;85.57
6930;DHT22;3504;52.616;13.238;2023-07-31T05:10:01;16.17;85.44
6930;DHT22;3504;52.616;13.238;2023-07-31T05:15:01;16.22;85.56
6930;DHT22;3504;52.616;13.238;2023-07-31T05:20:02;16.29;85.87
6930;DHT22;3504;52.616;13.238;2023-07-31T05:25:03;16.36;85.81
6930;DHT22;3504;52.616;13.238;2023-07-31T05:30:05;16.51;85.82
6930;DHT22;3504;52.616;13.238;2023-07-31T05:35:06;16.59;85.63
6930;DHT22;3504;52.616;13.238;2023-07-31T05:40:07;16.64;85.40
6930;DHT22;3504;52.616;13.238;2023-07-31T05:45:08;16.70;85.26
6930;DHT22;3504;52.616;13.238;2023-07-31T05:50:09;16.72;85.11
6930;DHT22;3504;52.616;13.238;2023-07-31T05:55:09;16.70;85.10
6930;DHT22;3504;52.616;13.238;2023-07-31T06:00:11;16.76;85.47
6930;DHT22;3504;52.616;13.238;2023-07-31T06:05:11;16.77;85.23
6930;DHT22;3504;52.616;13.238;2023-07-31T06:10:12;16.76;85.04
6930;DHT22;3504;52.616;13.238;2023-07-31T06:15:13;16.79;85.30
6930;DHT22;3504;52.616;13.238;2023-07-31T06:20:14;16.73;85.62
6930;DHT22;3504;52.616;13.238;2023-07-31T06:25:14;16.82;85.66
6930;DHT22;3504;52.616;13.238;2023-07-31T06:30:18;16.83;85.95
6930;DHT22;3504;52.616;13.238;2023-07-31T06:35:18;16.93;85.60
6930;DHT22;3504;52.616;13.238;2023-07-31T06:40:19;16.97;85.79
6930;DHT22;3504;52.616;13.238;2023-07-31T06:45:19;17.00;85.55
6930;DHT22;3504;52.616;13.238;2023-07-31T06:50:20;17.03;85.66
6930;DHT22;3504;52.616;13.238;2023-07-31T06:55:22;17.13;85.79
6930;DHT22;3504;52.616;13.238;2023-07-31T07:00:23;17.17;85.78
6930;DHT22;3504;52.616;13.238;2023-07-31T07:05:26;17.20;85.88
6930;DHT22;3504;52.616;13.238;2023-07-31T07:10:27;17.20;85.72
6930;DHT22;3504;52.616;13.238;2023-07-31T07:15:27;17.21;85.87
6930;DHT22;3504;52.616;13.238;2023-07-31T07:20:29;17.27;86.40
6930;DHT22;3504;52.616;13.238;2023-07-31T07:25:30;17.39;86.67
6930;DHT22;3504;52.616;13.238;2023-07-31T07:30:30;17.56;86.03
6930;DHT22;3504;52.616;13.238;2023-07-31T07:35:33;17.71;86.00
6930;DHT22;3504;52.616;13.238;2023-07-31T07:40:41;17.69;85.20
6930;DHT22;3504;52.616;13.238;2023-07-31T07:45:42;17.64;84.93
6930;DHT22;3504;52.616;13.238;2023-07-31T07:50:42;17.55;85.43
6930;DHT22;3504;52.616;13.238;2023-07-31T07:55:43;17.51;85.54
6930;DHT22;3504;52.616;13.238;2023-07-31T08:00:50;17.49;85.94
6930;DHT22;3504;52.616;13.238;2023-07-31T08:05:50;17.64;85.81
6930;DHT22;3504;52.616;13.238;2023-07-31T08:10:51;17.56;85.29
6930;DHT22;3504;52.616;13.238;2023-07-31T08:15:51;17.56;85.73
6930;DHT22;3504;52.616;13.238;2023-07-31T08:20:52;17.48;85.47
6930;DHT22;3504;52.616;13.238;2023-07-31T08:25:52;17.49;85.73
6930;DHT22;3504;52.616;13.238;2023-07-31T08:30:53;17.42;85.32
6930;DHT22;3504;52.616;13.238;2023-07-31T08:35:53;17.55;85.82
6930;DHT22;3504;52.616;13.238;2023-07-31T08:40:54;17.58;86.17
6930;DHT22;3504;52.616;13.238;2023-07-31T08:45:54;17.69;86.22
6930;DHT22;3504;52.616;13.238;2023-07-31T08:50:55;17.74;85.87
6930;DHT22;3504;52.616;13.238;2023-07-31T08:55:56;17.95;85.66
6930;DHT22;3504;52.616;13.238;2023-07-31T09:01:04;18.09;85.31
6930;DHT22;3504;52.616;13.238;2023-07-31T09:06:06;18.27;85.43
6930;DHT22;3504;52.616;13.238;2023-07-31T09:11:07;18.46;85.34
6930;DHT22;3504;52.616;13.238;2023-07-31T09:16:08;18.57;83.99
6930;DHT22;3504;52.616;13.238;2023-07-31T09:21:10;18.64;84.41
6930;DHT22;3504;52.616;13.238;2023-07-31T09:26:10;18.46;83.38
6930;DHT22;3504;52.616;13.238;2023-07-31T09:31:11;18.26;83.87
6930;DHT22;3504;52.616;13.238;2023-07-31T09:36:12;18.10;84.73
6930;DHT22;3504;52.616;13.238;2023-07-31T09:41:13;17.95;84.81
6930;DHT22;3504;52.616;13.238;2023-07-31T09:46:14;18.07;84.79
6930;DHT22;3504;52.616;13.238;2023-07-31T09:51:14;18.02;84.96
6930;DHT22;3504;52.616;13.238;2023-07-31T09:56:15;18.07;85.36
6930;DHT22;3504;52.616;13.238;2023-07-31T10:01:16;18.27;85.38
6930;DHT22;3504;52.616;13.238;2023-07-31T10:06:17;18.54;85.45
6930;DHT22;3504;52.616;13.238;2023-07-31T10:11:20;18.47;84.05
6930;DHT22;3504;52.616;13.238;2023-07-31T10:16:22;18.33;84.40
6930;DHT22;3504;52.616;13.238;2023-07-31T10:21:23;18.16;84.87
6930;DHT22;3504;52.616;13.238;2023-07-31T10:26:25;18.17;84.58
6930;DHT22;3504;52.616;13.238;2023-07-31T10:31:27;18.17;85.21
6930;DHT22;3504;52.616;13.238;2023-07-31T10:36:28;18.16;85.25
6930;DHT22;3504;52.616;13.238;2023-07-31T10:41:30;18.17;85.36
6930;DHT22;3504;52.616;13.238;2023-07-31T10:46:32;18.37;85.32
6930;DHT22;3504;52.616;13.238;2023-07-31T10:51:34;18.79;85.79
6930;DHT22;3504;52.616;13.238;2023-07-31T10:56:37;20.00;85.86
6930;DHT22;3504;52.616;13.238;2023-07-31T11:01:53;20.57;81.08
6930;DHT22;3504;52.616;13.238;2023-07-31T11:06:59;20.52;80.99
6930;DHT22;3504;52.616;13.238;2023-07-31T11:12:00;20.35;80.70
6930;DHT22;3504;52.616;13.238;2023-07-31T11:17:07;20.21;80.39
6930;DHT22;3504;52.616;13.238;2023-07-31T11:22:07;20.12;79.85
6930;DHT22;3504;52.616;13.238;2023-07-31T11:27:08;20.04;79.74
6930;DHT22;3504;52.616;13.238;2023-07-31T11:32:16;20.21;80.03
6930;DHT22;3504;52.616;13.238;2023-07-31T11:37:17;20.36;78.24
6930;DHT22;3504;52.616;13.238;2023-07-31T11:42:18;20.41;76.77
6930;DHT22;3504;52.616;13.238;2023-07-31T11:47:19;20.35;76.40
6930;DHT22;3504;52.616;13.238;2023-07-31T11:52:20;20.24;76.37
6930;DHT22;3504;52.616;13.238;2023-07-31T11:57:20;20.05;75.78
6930;DHT22;3504;52.616;13.238;2023-07-31T12:02:21;19.92;75.81
6930;DHT22;3504;52.616;13.238;2023-07-31T12:07:24;19.80;74.95
6930;DHT22;3504;52.616;13.238;2023-07-31T12:12:25;19.64;76.56
6930;DHT22;3504;52.616;13.238;2023-07-31T12:17:26;19.51;77.65
6930;DHT22;3504;52.616;13.238;2023-07-31T12:22:26;19.60;77.73
6930;DHT22;3504;52.616;13.238;2023-07-31T12:27:33;19.73;77.92
6930;DHT22;3504;52.616;13.238;2023-07-31T12:32:34;19.63;78.33
6930;DHT22;3504;52.616;13.238;2023-07-31T12:37:34;19.60;79.09
6930;DHT22;3504;52.616;13.238;2023-07-31T12:42:35;19.64;79.87
6930;DHT22;3504;52.616;13.238;2023-07-31T12:47:35;19.63;79.72
6930;DHT22;3504;52.616;13.238;2023-07-31T12:52:36;19.66;80.14
6930;DHT22;3504;52.616;13.238;2023-07-31T12:57:37;19.80;80.45
6930;DHT22;3504;52.616;13.238;2023-07-31T13:02:37;19.98;80.17
6930;DHT22;3504;52.616;13.238;2023-07-31T13:07:38;20.17;80.20
6930;DHT22;3504;52.616;13.238;2023-07-31T13:12:39;20.01;80.17
6930;DHT22;3504;52.616;13.238;2023-07-31T13:17:39;19.91;80.71
6930;DHT22;3504;52.616;13.238;2023-07-31T13:22:40;20.25;82.32
6930;DHT22;3504;52.616;13.238;2023-07-31T13:27:40;20.45;80.17
6930;DHT22;3504;52.616;13.238;2023-07-31T13:32:41;20.57;79.33
6930;DHT22;3504;52.616;13.238;2023-07-31T13:37:41;20.77;80.39
6930;DHT22;3504;52.616;13.238;2023-07-31T13:42:42;20.79;79.05
6930;DHT22;3504;52.616;13.238;2023-07-31T13:47:42;20.92;78.04
6930;DHT22;3504;52.616;13.238;2023-07-31T13:52:43;21.03;78.74
6930;DHT22;3504;52.616;13.238;2023-07-31T13:57:43;20.97;78.56
6930;DHT22;3504;52.616;13.238;2023-07-31T14:02:44;20.94;78.12
6930;DHT22;3504;52.616;13.238;2023-07-31T14:07:44;20.77;78.49
6930;DHT22;3504;52.616;13.238;2023-07-31T14:12:45;20.59;78.24
6930;DHT22;3504;52.616;13.238;2023-07-31T14:17:45;20.43;77.14
6930;DHT22;3504;52.616;13.238;2023-07-31T14:22:46;20.51;76.85
6930;DHT22;3504;52.616;13.238;2023-07-31T14:27:46;20.49;76.91
6930;DHT22;3504;52.616;13.238;2023-07-31T14:32:47;20.49;77.59
6930;DHT22;3504;52.616;13.238;2023-07-31T14:37:47;20.43;77.32
6930;DHT22;3504;52.616;13.238;2023-07-31T14:42:48;20.33;76.40
6930;DHT22;3504;52.616;13.238;2023-07-31T14:47:48;20.28;76.45
6930;DHT22;3504;52.616;13.238;2023-07-31T14:52:49;20.24;76.71
6930;DHT22;3504;52.616;13.238;2023-07-31T14:57:49;20.25;76.26
6930;DHT22;3504;52.616;13.238;2023-07-31T15:02:50;20.28;76.45
6930;DHT22;3504;52.616;13.238;2023-07-31T15:07:51;20.35;75.09
6930;DHT22;3504;52.616;13.238;2023-07-31T15:12:51;20.41;75.70
6930;DHT22;3504;52.616;13.238;2023-07-31T15:17:52;20.51;75.97
6930;DHT22;3504;52.616;13.238;2023-07-31T15:22:52;20.56;75.11
6930;DHT22;3504;52.616;13.238;2023-07-31T15:27:53;20.56;74.90
6930;DHT22;3504;52.616;13.238;2023-07-31T15:32:53;20.39;73.91
6930;DHT22;3504;52.616;13.238;2023-07-31T15:37:54;20.36;74.23
6930;DHT22;3504;52.616;13.238;2023-07-31T15:42:54;20.29;74.85
6930;DHT22;3504;52.616;13.238;2023-07-31T15:47:55;20.22;74.91
6930;DHT22;3504;52.616;13.238;2023-07-31T15:52:55;20.21;75.21
6930;DHT22;3504;52.616;13.238;2023-07-31T15:57:56;20.18;75.01
6930;DHT22;3504;52.616;13.238;2023-07-31T16:02:56;20.17;74.53
6930;DHT22;3504;52.616;13.238;2023-07-31T16:07:57;20.17;75.28
6930;DHT22;3504;52.616;13.238;2023-07-31T16:12:57;20.20;75.65
6930;DHT22;3504;52.616;13.238;2023-07-31T16:17:58;20.28;75.43
6930;DHT22;3504;52.616;13.238;2023-07-31T16:22:58;20.31;75.29
6930;DHT22;3504;52.616;13.238;2023-07-31T16:27:59;20.29;75.39
6930;DHT22;3504;52.616;13.238;2023-07-31T16:32:59;20.24;75.38
6930;DHT22;3504;52.616;13.238;2023-07-31T16:38:00;20.22;76.01
6930;DHT22;3504;52.616;13.238;2023-07-31T16:43:00;20.21;74.35
6930;DHT22;3504;52.616;13.238;2023-07-31T16:48:01;20.22;75.31
6930;DHT22;3504;52.616;13.238;2023-07-31T16:53:02;20.20;74.70
6930;DHT22;3504;52.616;13.238;2023-07-31T16:58:03;20.15;73.81
6930;DHT22;3504;52.616;13.238;2023-07-31T17:03:03;20.14;73.66
6930;DHT22;3504;52.616;13.238;2023-07-31T17:08:05;20.04;74.39
6930;DHT22;3504;52.616;13.238;2023-07-31T17:13:06;19.81;77.39
6930;DHT22;3504;52.616;13.238;2023-07-31T17:18:06;19.57;79.69
6930;DHT22;3504;52.616;13.238;2023-07-31T17:23:08;19.42;81.04
6930;DHT22;3504;52.616;13.238;2023-07-31T17:28:09;19.22;82.04
6930;DHT22;3504;52.616;13.238;2023-07-31T17:33:09;19.22;82.35
6930;DHT22;3504;52.616;13.238;2023-07-31T17:38:10;19.22;82.34
6930;DHT22;3504;52.616;13.238;2023-07-31T17:43:10;19.12;82.74
6930;DHT22;3504;52.616;13.238;2023-07-31T17:48:11;19.09;83.07
6930;DHT22;3504;52.616;13.238;2023-07-31T17:53:12;19.06;82.93
6930;DHT22;3504;52.616;13.238;2023-07-31T17:58:12;19.05;82.72
6930;DHT22;3504;52.616;13.238;2023-07-31T18:03:13;19.06;82.52
6930;DHT22;3504;52.616;13.238;2023-07-31T18:08:14;19.02;82.83
6930;DHT22;3504;52.616;13.238;2023-07-31T18:13:14;19.03;82.49
6930;DHT22;3504;52.616;13.238;2023-07-31T18:18:15;19.00;82.47
6930;DHT22;3504;52.616;13.238;2023-07-31T18:23:15;18.96;82.42
6930;DHT22;3504;52.616;13.238;2023-07-31T18:28:16;18.91;82.60
6930;DHT22;3504;52.616;13.238;2023-07-31T18:33:16;18.85;82.75
6930;DHT22;3504;52.616;13.238;2023-07-31T18:38:17;18.84;82.82
6930;DHT22;3504;52.616;13.238;2023-07-31T18:43:18;18.79;82.94
6930;DHT22;3504;52.616;13.238;2023-07-31T18:48:18;18.79;83.00
6930;DHT22;3504;52.616;13.238;2023-07-31T18:53:19;18.75;82.88
6930;DHT22;3504;52.616;13.238;2023-07-31T18:58:22;18.71;83.14
6930;DHT22;3504;52.616;13.238;2023-07-31T19:03:23;18.58;83.03
6930;DHT22;3504;52.616;13.238;2023-07-31T19:08:25;18.53;82.94
6930;DHT22;3504;52.616;13.238;2023-07-31T19:13:25;18.51;82.85
6930;DHT22;3504;52.616;13.238;2023-07-31T19:18:26;18.46;82.66
6930;DHT22;3504;52.616;13.238;2023-07-31T19:23:26;18.46;82.56
6930;DHT22;3504;52.616;13.238;2023-07-31T19:28:27;18.44;82.15
6930;DHT22;3504;52.616;13.238;2023-07-31T19:33:27;18.46;81.80
6930;DHT22;3504;52.616;13.238;2023-07-31T19:38:28;18.47;81.80
6930;DHT22;3504;52.616;13.238;2023-07-31T19:43:28;18.48;81.76
6930;DHT22;3504;52.616;13.238;2023-07-31T19:48:29;18.46;81.63
6930;DHT22;3504;52.616;13.238;2023-07-31T19:53:29;18.50;81.47
6930;DHT22;3504;52.616;13.238;2023-07-31T19:58:30;18.48;81.18
6930;DHT22;3504;52.616;13.238;2023-07-31T20:03:31;18.54;80.67
6930;DHT22;3504;52.616;13.238;2023-07-31T20:08:31;18.56;80.98
6930;DHT22;3504;52.616;13.238;2023-07-31T20:13:32;18.57;80.54
6930;DHT22;3504;52.616;13.238;2023-07-31T20:18:32;18.60;80.30
6930;DHT22;3504;52.616;13.238;2023-07-31T20:23:33;18.63;80.08
6930;DHT22;3504;52.616;13.238;2023-07-31T20:28:33;18.63;80.25
6930;DHT22;3504;52.616;13.238;2023-07-31T20:33:34;18.60;80.31
6930;DHT22;3504;52.616;13.238;2023-07-31T20:38:34;18.61;79.86
6930;DHT22;3504;52.616;13.238;2023-07-31T20:43:35;18.61;79.73
6930;DHT22;3504;52.616;13.238;2023-07-31T20:48:35;18.61;79.77
6930;DHT22;3504;52.616;13.238;2023-07-31T20:53:36;18.63;80.20
6930;DHT22;3504;52.616;13.238;2023-07-31T20:58:38;18.61;79.91
6930;DHT22;3504;52.616;13.238;2023-07-31T21:03:38;18.57;79.88
6930;DHT22;3504;52.616;13.238;2023-07-31T21:08:39;18.57;80.03
6930;DHT22;3504;52.616;13.238;2023-07-31T21:13:39;18.57;80.12
6930;DHT22;3504;52.616;13.238;2023-07-31T21:18:40;18.57;80.18
6930;DHT22;3504;52.616;13.238;2023-07-31T21:23:41;18.56;80.21
6930;DHT22;3504;52.616;13.238;2023-07-31T21:28:41;18.54;79.84
6930;DHT22;3504;52.616;13.238;2023-07-31T21:33:42;18.56;79.81
6930;DHT22;3504;52.616;13.238;2023-07-31T21:38:43;18.54;79.94
6930;DHT22;3504;52.616;13.238;2023-07-31T21:43:43;18.56;79.72
6930;DHT22;3504;52.616;13.238;2023-07-31T21:48:44;18.54;79.91
6930;DHT22;3504;52.616;13.238;2023-07-31T21:53:44;18.56;79.94
6930;DHT22;3504;52.616;13.238;2023-07-31T21:58:45;18.56;80.03
6930;DHT22;3504;52.616;13.238;2023-07-31T22:03:45;18.56;79.99
6930;DHT22;3504;52.616;13.238;2023-07-31T22:08:46;18.57;79.91
6930;DHT22;3504;52.616;13.238;2023-07-31T22:13:47;18.58;79.95
6930;DHT22;3504;52.616;13.238;2023-07-31T22:18:47;18.61;80.09
6930;DHT22;3504;52.616;13.238;2023-07-31T22:23:48;18.61;80.32
6930;DHT22;3504;52.616;13.238;2023-07-31T22:28:48;18.61;80.54
6930;DHT22;3504;52.616;13.238;2023-07-31T22:33:50;18.56;80.40
6930;DHT22;3504;52.616;13.238;2023-07-31T22:38:50;18.57;80.58
6930;DHT22;3504;52.616;13.238;2023-07-31T22:43:51;18.51;80.79
6930;DHT22;3504;52.616;13.238;2023-07-31T22:48:51;18.50;80.75
6930;DHT22;3504;52.616;13.238;2023-07-31T22:53:53;18.50;80.55
6930;DHT22;3504;52.616;13.238;2023-07-31T22:58:55;18.47;80.51
6930;DHT22;3504;52.616;13.238;2023-07-31T23:03:56;18.48;80.56
6930;DHT22;3504;52.616;13.238;2023-07-31T23:08:56;18.46;80.61
6930;DHT22;3504;52.616;13.238;2023-07-31T23:13:57;18.46;80.72
6930;DHT22;3504;52.616;13.238;2023-07-31T23:18:57;18.46;80.97
6930;DHT22;3504;52.616;13.238;2023-07-31T23:23:58;18.44;81.16
6930;DHT22;3504;52.616;13.238;2023-07-31T23:28:59;18.43;81.21
6930;DHT22;3504;52.616;13.238;2023-07-31T23:34:00;18.43;81.75
6930;DHT22;3504;52.616;13.238;2023-07-31T23:39:01;18.36;81.91
6930;DHT22;3504;52.616;13.238;2023-07-31T23:44:02;18.33;82.05
6930;DHT22;3504;52.616;13.238;2023-07-31T23:49:03;18.28;82.20
6930;DHT22;3504;52.616;13.238;2023-07-31T23:54:04;18.24;82.77
6930;DHT22;3504;52.616;13.238;2023-07-31T23:59:05;18.24;82.73
